Time;durP1;ratioP1;P1;durP2;ratioP2;P2;SDS_P1;SDS_P2;PMS_P1;PMS_P2;Temp;Humidity;BMP_temperature;BMP_pressure;BME280_temperature;BME280_humidity;BME280_pressure;Samples;Min_cycle;Max_cycle;Signal;HPM_P1;HPM_P2
2021/03/23 00:01:29;;;;;;;12.75;6.75;;;1.60;99.90;;;;;;5031790;28;20052;-75
2021/03/23 00:03:54;;;;;;;16.10;7.45;;;1.50;99.90;;;;;;5035689;28;20083;-76
2021/03/23 00:06:23;;;;;;;17.80;8.07;;;1.50;99.90;;;;;;5035487;28;20481;-75
2021/03/23 00:09:01;;;;;;;30.23;7.47;;;1.60;99.90;;;;;;5035600;28;20030;-75
2021/03/23 00:11:33;;;;;;;19.55;7.97;;;1.60;99.90;;;;;;5035500;28;20420;-75
2021/03/23 00:14:01;;;;;;;19.13;7.85;;;1.60;99.90;;;;;;5035481;28;20093;-75
2021/03/23 00:16:34;;;;;;;19.80;9.18;;;1.50;99.90;;;;;;5033924;28;20022;-75
2021/03/23 00:19:01;;;;;;;23.15;7.70;;;1.50;99.90;;;;;;5035422;28;20093;-75
2021/03/23 00:21:27;;;;;;;20.75;9.05;;;1.50;99.90;;;;;;5035477;28;20385;-75
2021/03/23 00:23:54;;;;;;;17.08;8.02;;;1.50;99.90;;;;;;5035373;28;20075;-75
2021/03/23 00:26:21;;;;;;;22.48;7.47;;;1.40;99.90;;;;;;5035125;28;20048;-76
2021/03/23 00:28:49;;;;;;;20.73;8.52;;;1.40;99.90;;;;;;5033911;28;20060;-75
2021/03/23 00:31:16;;;;;;;23.85;8.52;;;1.40;99.90;;;;;;5035091;28;20032;-75
2021/03/23 00:33:42;;;;;;;18.10;7.85;;;1.40;99.90;;;;;;5035064;28;20033;-75
2021/03/23 00:36:08;;;;;;;19.67;8.80;;;1.40;99.90;;;;;;5035045;28;20028;-76
2021/03/23 00:38:37;;;;;;;21.13;9.02;;;1.40;99.90;;;;;;5034995;28;20473;-75
2021/03/23 00:41:05;;;;;;;20.55;8.48;;;1.50;99.90;;;;;;5034998;28;20022;-75
2021/03/23 00:43:30;;;;;;;17.77;9.30;;;1.70;99.90;;;;;;5034893;28;20021;-75
2021/03/23 00:45:56;;;;;;;17.73;8.80;;;1.70;99.90;;;;;;5034860;28;20036;-75
2021/03/23 00:48:22;;;;;;;21.55;8.50;;;1.70;99.90;;;;;;5034815;28;20059;-74
2021/03/23 00:50:48;;;;;;;25.73;8.15;;;1.70;99.90;;;;;;5033502;28;20026;-75
2021/03/23 00:53:14;;;;;;;19.42;8.30;;;1.70;99.90;;;;;;5034373;28;20037;-74
2021/03/23 00:55:40;;;;;;;19.40;9.48;;;1.70;99.90;;;;;;5034592;28;20049;-75
2021/03/23 00:58:06;;;;;;;28.90;9.15;;;1.70;99.90;;;;;;5034704;28;20512;-75
2021/03/23 01:00:32;;;;;;;31.05;9.82;;;1.60;99.90;;;;;;5034617;28;20105;-75
2021/03/23 01:02:58;;;;;;;14.07;8.48;;;1.60;99.90;;;;;;5033366;28;20033;-75
2021/03/23 01:05:27;;;;;;;19.60;9.55;;;1.70;99.90;;;;;;5034396;28;20135;-75
2021/03/23 01:07:53;;;;;;;17.38;8.93;;;1.80;99.90;;;;;;5034400;28;20025;-75
2021/03/23 01:10:20;;;;;;;28.63;9.00;;;1.70;99.90;;;;;;5034373;28;20048;-75
2021/03/23 01:12:46;;;;;;;25.63;9.27;;;1.80;99.90;;;;;;5034149;28;20018;-74
2021/03/23 01:15:17;;;;;;;22.98;9.80;;;1.80;99.90;;;;;;5034373;28;20032;-74
2021/03/23 01:17:43;;;;;;;23.75;9.50;;;1.80;99.90;;;;;;5034367;28;20118;-75
2021/03/23 01:20:12;;;;;;;20.30;10.20;;;1.90;99.90;;;;;;5034339;28;20049;-74
2021/03/23 01:22:38;;;;;;;29.10;10.25;;;1.70;99.90;;;;;;5034244;28;20033;-74
2021/03/23 01:25:05;;;;;;;26.77;10.40;;;1.60;99.90;;;;;;5034174;28;20477;-75
2021/03/23 01:27:30;;;;;;;25.20;10.73;;;1.60;99.90;;;;;;5034129;28;20366;-75
2021/03/23 01:29:56;;;;;;;21.33;10.30;;;1.60;99.90;;;;;;5034106;28;20088;-75
2021/03/23 01:32:22;;;;;;;19.08;8.80;;;1.80;99.90;;;;;;5034094;28;20105;-75
2021/03/23 01:34:48;;;;;;;21.23;9.40;;;2.00;99.90;;;;;;5033974;28;20025;-75
2021/03/23 01:37:15;;;;;;;20.10;8.52;;;2.00;99.90;;;;;;5033995;28;20057;-75
2021/03/23 01:39:42;;;;;;;21.23;9.18;;;2.10;99.90;;;;;;5033890;28;20033;-75
2021/03/23 01:42:09;;;;;;;27.70;9.82;;;2.10;99.90;;;;;;5033931;28;20543;-75
2021/03/23 01:44:39;;;;;;;19.77;9.65;;;2.00;99.90;;;;;;5033896;28;20017;-75
2021/03/23 01:47:05;;;;;;;18.83;8.82;;;1.90;99.90;;;;;;5033891;28;20048;-75
2021/03/23 01:49:40;;;;;;;24.23;10.18;;;2.10;99.90;;;;;;5033504;28;20022;-74
2021/03/23 01:52:11;;;;;;;25.00;9.48;;;2.30;99.90;;;;;;5033644;28;20026;-74
2021/03/23 01:54:49;;;;;;;21.75;11.20;;;2.40;99.90;;;;;;5033602;28;20508;-74
2021/03/23 01:57:16;;;;;;;18.55;8.65;;;2.50;99.90;;;;;;5033616;28;20053;-74
2021/03/23 01:59:51;;;;;;;25.10;10.10;;;2.40;99.90;;;;;;5032240;28;20033;-74
2021/03/23 02:02:18;;;;;;;19.98;8.85;;;2.30;99.90;;;;;;5033656;28;20017;-74
2021/03/23 02:04:44;;;;;;;23.95;9.82;;;2.30;99.90;;;;;;5033329;28;20060;-74
2021/03/23 02:07:10;;;;;;;18.40;9.75;;;2.30;99.90;;;;;;5032226;28;20017;-74
2021/03/23 02:09:37;;;;;;;22.65;9.57;;;2.30;99.90;;;;;;5033289;28;20536;-74
2021/03/23 02:12:09;;;;;;;24.52;9.50;;;2.30;99.90;;;;;;5033340;28;20093;-74
2021/03/23 02:14:39;;;;;;;22.63;10.52;;;2.00;99.90;;;;;;5033379;28;20370;-74
2021/03/23 02:17:15;;;;;;;26.08;9.95;;;1.90;99.90;;;;;;5033278;28;20018;-74
2021/03/23 02:19:41;;;;;;;24.38;9.35;;;1.70;99.90;;;;;;5031943;28;20025;-74
2021/03/23 02:22:27;;;;;;;25.88;9.15;;;1.70;99.90;;;;;;5015396;28;20027;-74
2021/03/23 02:24:53;;;;;;;31.33;10.52;;;1.60;99.90;;;;;;5032317;28;20492;-74
2021/03/23 02:27:20;;;;;;;18.08;9.25;;;1.50;99.90;;;;;;5033059;28;20466;-74
2021/03/23 02:29:47;;;;;;;19.33;9.40;;;1.60;99.90;;;;;;5032834;28;20036;-74
2021/03/23 02:32:13;;;;;;;29.23;10.95;;;1.60;99.90;;;;;;5032888;28;20108;-74
2021/03/23 02:34:39;;;;;;;24.75;9.73;;;1.70;99.90;;;;;;5032974;28;20021;-74
2021/03/23 02:37:05;;;;;;;22.02;10.60;;;1.70;99.90;;;;;;5032798;28;20022;-73
2021/03/23 02:39:32;;;;;;;28.17;11.25;;;1.60;99.90;;;;;;5032825;28;20029;-74
2021/03/23 02:41:59;;;;;;;27.42;12.10;;;1.60;99.90;;;;;;5031512;28;20133;-74
2021/03/23 02:44:26;;;;;;;25.17;9.43;;;1.60;99.90;;;;;;5032764;28;20021;-74
2021/03/23 02:46:52;;;;;;;29.73;10.13;;;1.60;99.90;;;;;;5032599;28;20033;-74
2021/03/23 02:49:18;;;;;;;25.52;10.35;;;1.60;99.90;;;;;;5014877;28;20030;-74
2021/03/23 02:51:48;;;;;;;28.77;10.82;;;1.60;99.90;;;;;;5032224;28;20445;-74
2021/03/23 02:54:13;;;;;;;27.50;10.90;;;1.60;99.90;;;;;;5032567;28;20178;-74
2021/03/23 02:56:39;;;;;;;21.23;10.00;;;1.70;99.90;;;;;;5032404;28;20077;-74
2021/03/23 02:59:05;;;;;;;26.70;10.38;;;1.70;99.90;;;;;;5032387;28;20057;-74
2021/03/23 03:01:31;;;;;;;28.38;12.00;;;1.70;99.90;;;;;;5014774;28;20033;-74
2021/03/23 03:03:56;;;;;;;32.90;11.55;;;1.70;99.90;;;;;;5032228;28;20052;-74
2021/03/23 03:06:22;;;;;;;29.95;11.38;;;1.70;99.90;;;;;;5014576;28;20124;-74
2021/03/23 03:08:48;;;;;;;24.33;11.63;;;1.70;99.90;;;;;;5032263;28;20528;-74
2021/03/23 03:11:14;;;;;;;25.42;11.38;;;1.60;99.90;;;;;;5032335;28;20160;-74
2021/03/23 03:13:41;;;;;;;24.98;11.10;;;1.70;99.90;;;;;;5032265;28;20032;-74
2021/03/23 03:16:07;;;;;;;27.73;11.43;;;1.60;99.90;;;;;;5014699;28;20474;-74
2021/03/23 03:18:33;;;;;;;28.70;12.25;;;1.60;99.90;;;;;;5032032;28;20018;-74
2021/03/23 03:21:00;;;;;;;23.60;11.18;;;1.60;99.90;;;;;;5032253;28;20030;-74
2021/03/23 03:23:26;;;;;;;30.23;13.52;;;1.60;99.90;;;;;;5032192;28;20035;-74
2021/03/23 03:25:53;;;;;;;25.45;12.10;;;1.70;99.90;;;;;;5032012;28;20021;-74
2021/03/23 03:28:19;;;;;;;27.73;11.50;;;1.80;99.90;;;;;;5032001;28;20108;-74
2021/03/23 03:30:46;;;;;;;26.13;11.32;;;1.70;99.90;;;;;;5032009;28;20032;-74
2021/03/23 03:33:15;;;;;;;33.03;11.88;;;1.70;99.90;;;;;;5031826;28;20032;-74
2021/03/23 03:35:44;;;;;;;27.63;11.27;;;1.70;99.90;;;;;;5031782;28;20025;-74
2021/03/23 03:38:11;;;;;;;27.20;12.05;;;1.60;99.90;;;;;;5031836;28;20088;-74
2021/03/23 03:40:43;;;;;;;30.90;12.23;;;1.60;99.90;;;;;;5031904;28;20060;-74
2021/03/23 03:43:12;;;;;;;23.58;11.80;;;1.60;99.90;;;;;;5030955;28;20025;-74
2021/03/23 03:45:37;;;;;;;25.42;11.32;;;1.70;99.90;;;;;;5031661;28;20104;-74
2021/03/23 03:48:04;;;;;;;31.92;12.82;;;1.80;99.90;;;;;;5031816;28;20120;-74
2021/03/23 03:50:31;;;;;;;38.92;12.15;;;1.80;99.90;;;;;;5031883;28;20029;-74
2021/03/23 03:52:57;;;;;;;30.98;10.98;;;1.90;99.90;;;;;;5031415;28;20030;-74
2021/03/23 03:55:31;;;;;;;25.52;10.98;;;1.90;99.90;;;;;;5031538;28;20067;-74
2021/03/23 03:57:57;;;;;;;22.60;11.90;;;1.80;99.90;;;;;;5031741;28;20028;-74
2021/03/23 04:00:25;;;;;;;29.98;12.02;;;1.90;99.90;;;;;;5031783;28;20034;-74
2021/03/23 04:02:51;;;;;;;27.50;11.88;;;1.80;99.90;;;;;;5031711;28;20358;-74
2021/03/23 04:05:21;;;;;;;23.58;12.05;;;1.80;99.90;;;;;;5031573;28;20037;-74
2021/03/23 04:07:47;;;;;;;41.60;12.55;;;1.90;99.90;;;;;;5013776;28;20297;-74
2021/03/23 04:10:13;;;;;;;29.08;11.98;;;1.80;99.90;;;;;;5013928;28;20030;-74
2021/03/23 04:12:39;;;;;;;28.17;11.68;;;1.80;99.90;;;;;;5031774;28;20026;-74
2021/03/23 04:15:05;;;;;;;27.30;11.00;;;1.60;99.90;;;;;;5013742;28;20028;-74
2021/03/23 04:17:31;;;;;;;28.02;12.07;;;1.50;99.90;;;;;;5031525;28;20031;-74
2021/03/23 04:19:57;;;;;;;33.60;11.95;;;1.50;99.90;;;;;;5031608;28;20452;-74
2021/03/23 04:22:23;;;;;;;22.75;11.38;;;1.40;99.90;;;;;;5031616;28;20033;-74
2021/03/23 04:24:48;;;;;;;27.23;11.73;;;1.30;99.90;;;;;;5031294;28;20052;-74
2021/03/23 04:27:14;;;;;;;26.70;10.95;;;1.50;99.90;;;;;;5031449;28;20385;-74
2021/03/23 04:29:40;;;;;;;21.33;11.25;;;1.60;99.90;;;;;;5031333;28;20415;-74
2021/03/23 04:32:06;;;;;;;26.55;11.30;;;1.70;99.90;;;;;;5031374;28;20037;-74
2021/03/23 04:34:32;;;;;;;25.73;11.65;;;1.70;99.90;;;;;;5031337;28;20367;-74
2021/03/23 04:36:58;;;;;;;32.40;12.27;;;1.60;99.90;;;;;;5031377;28;20024;-74
2021/03/23 04:39:23;;;;;;;21.17;11.10;;;1.60;99.90;;;;;;5031278;28;20029;-74
2021/03/23 04:41:49;;;;;;;36.78;11.05;;;1.50;99.90;;;;;;5013615;28;20053;-74
2021/03/23 04:44:15;;;;;;;26.00;11.65;;;1.50;99.90;;;;;;5031403;28;20052;-74
2021/03/23 04:46:40;;;;;;;30.35;11.82;;;1.50;99.90;;;;;;5031134;28;20025;-74
2021/03/23 04:49:06;;;;;;;32.80;11.68;;;1.50;99.90;;;;;;5016145;28;20025;-74
2021/03/23 04:51:32;;;;;;;32.47;12.38;;;1.50;99.90;;;;;;5034628;28;20435;-74
2021/03/23 04:54:08;;;;;;;30.35;11.13;;;1.50;99.90;;;;;;5034796;28;20543;-74
2021/03/23 04:56:37;;;;;;;21.80;11.77;;;1.50;99.90;;;;;;5033392;28;20104;-74
2021/03/23 04:59:03;;;;;;;26.25;10.93;;;1.50;99.90;;;;;;5034619;28;20028;-74
2021/03/23 05:01:29;;;;;;;24.98;11.52;;;1.50;99.90;;;;;;5034672;28;20030;-74
2021/03/23 05:03:58;;;;;;;29.08;11.90;;;1.70;99.90;;;;;;5034563;28;20034;-74
2021/03/23 05:06:24;;;;;;;27.20;11.02;;;1.80;99.90;;;;;;5034540;28;20026;-74
2021/03/23 05:08:51;;;;;;;23.92;10.60;;;1.90;99.90;;;;;;5034472;28;20050;-74
2021/03/23 05:11:20;;;;;;;22.17;11.50;;;1.80;99.90;;;;;;5034285;28;20025;-74
2021/03/23 05:13:46;;;;;;;32.35;13.45;;;1.70;99.90;;;;;;5034458;28;20024;-74
2021/03/23 05:16:12;;;;;;;29.02;10.90;;;1.70;99.90;;;;;;5034089;28;20017;-74
2021/03/23 05:18:38;;;;;;;21.67;11.48;;;1.70;99.90;;;;;;5034287;28;20036;-74
2021/03/23 05:21:05;;;;;;;26.25;12.57;;;1.60;99.90;;;;;;5034328;28;20029;-74
2021/03/23 05:23:31;;;;;;;29.13;10.95;;;1.50;99.90;;;;;;5034294;28;20037;-74
2021/03/23 05:25:57;;;;;;;28.25;11.43;;;1.50;99.90;;;;;;5034106;28;20034;-74
2021/03/23 05:28:23;;;;;;;21.75;11.07;;;1.70;99.90;;;;;;5034137;28;20539;-74
2021/03/23 05:30:50;;;;;;;27.23;10.88;;;1.70;99.90;;;;;;5033879;28;20033;-74
2021/03/23 05:33:16;;;;;;;29.63;11.55;;;1.80;99.90;;;;;;5032666;28;20033;-74
2021/03/23 05:35:41;;;;;;;25.75;11.45;;;1.70;99.90;;;;;;5033919;28;20067;-74
2021/03/23 05:38:08;;;;;;;25.83;11.85;;;1.70;99.90;;;;;;5033749;28;20109;-74
2021/03/23 05:40:39;;;;;;;27.30;9.82;;;1.70;99.90;;;;;;5033926;28;20385;-74
2021/03/23 05:43:29;;;;;;;27.60;10.80;;;1.70;99.90;;;;;;5032671;28;20029;-74
2021/03/23 05:46:20;;;;;;;25.17;11.35;;;1.70;99.90;;;;;;5033678;28;20037;-74
2021/03/23 05:48:59;;;;;;;20.88;11.23;;;1.80;99.90;;;;;;5033716;28;20100;-74
2021/03/23 05:51:33;;;;;;;26.63;10.77;;;1.90;99.90;;;;;;5033480;28;20025;-74
2021/03/23 05:53:58;;;;;;;25.42;11.35;;;2.00;99.90;;;;;;5033755;28;20036;-74
2021/03/23 05:56:28;;;;;;;22.95;11.45;;;1.90;99.90;;;;;;5015906;28;20021;-74
2021/03/23 05:59:02;;;;;;;32.05;13.60;;;1.80;99.90;;;;;;5033006;28;20109;-74
2021/03/23 06:01:36;;;;;;;26.02;11.32;;;1.70;99.90;;;;;;5033117;28;20025;-74
2021/03/23 06:04:16;;;;;;;28.42;11.35;;;1.80;99.90;;;;;;5033589;28;20559;-74
2021/03/23 06:06:45;;;;;;;28.45;10.93;;;1.80;99.90;;;;;;5033593;28;20044;-74
2021/03/23 06:09:13;;;;;;;22.63;10.48;;;1.70;99.90;;;;;;5033236;28;20025;-74
2021/03/23 06:11:38;;;;;;;24.30;10.55;;;1.80;99.90;;;;;;5033304;28;20021;-74
2021/03/23 06:14:13;;;;;;;26.40;11.75;;;1.80;99.90;;;;;;5033126;28;20029;-74
2021/03/23 06:17:11;;;;;;;25.52;12.32;;;1.70;99.90;;;;;;5015437;28;20025;-74
2021/03/23 06:20:10;;;;;;;25.38;12.00;;;1.70;99.90;;;;;;5029362;28;20109;-74
2021/03/23 06:22:59;;;;;;;28.40;11.45;;;1.80;99.90;;;;;;5033041;28;20041;-74
2021/03/23 06:25:34;;;;;;;29.35;12.07;;;1.90;99.90;;;;;;5032994;28;20071;-75
2021/03/23 06:28:19;;;;;;;42.42;11.23;;;1.80;99.90;;;;;;5031932;28;20014;-74
2021/03/23 06:31:06;;;;;;;27.63;12.32;;;1.80;99.90;;;;;;5032908;28;20036;-74
2021/03/23 06:33:32;;;;;;;26.27;10.65;;;2.00;99.90;;;;;;5032930;28;20497;-74
2021/03/23 06:36:10;;;;;;;22.45;9.20;;;2.10;99.90;;;;;;5032740;28;20128;-74
2021/03/23 06:38:37;;;;;;;25.30;10.90;;;2.10;99.90;;;;;;5032702;28;20022;-74
2021/03/23 06:41:29;;;;;;;27.70;11.93;;;2.20;99.90;;;;;;5032852;28;20037;-74
2021/03/23 06:44:12;;;;;;;29.02;13.32;;;2.30;99.90;;;;;;5032746;28;20123;-74
2021/03/23 06:46:45;;;;;;;34.70;10.85;;;2.40;99.90;;;;;;5032373;28;20030;-74
2021/03/23 06:49:13;;;;;;;25.83;11.27;;;2.50;99.90;;;;;;5032694;28;20025;-74
2021/03/23 06:52:11;;;;;;;42.03;11.77;;;2.40;99.90;;;;;;5032216;28;20022;-74
2021/03/23 06:54:39;;;;;;;24.77;11.63;;;2.30;99.90;;;;;;5031873;28;20042;-74
2021/03/23 06:57:13;;;;;;;26.05;12.23;;;2.30;99.90;;;;;;5030903;28;20025;-74
2021/03/23 06:59:58;;;;;;;36.70;12.77;;;2.40;99.90;;;;;;5029842;28;20405;-74
2021/03/23 07:02:35;;;;;;;30.67;11.07;;;2.40;99.90;;;;;;5049779;28;20017;-74
2021/03/23 07:05:36;;;;;;;41.35;10.98;;;2.50;99.90;;;;;;5052210;28;20074;-74
2021/03/23 07:08:18;;;;;;;48.50;12.43;;;2.60;99.90;;;;;;5040747;28;20025;-74
2021/03/23 07:10:53;;;;;;;33.35;11.48;;;2.60;99.90;;;;;;5031164;28;20030;-74
2021/03/23 07:13:25;;;;;;;33.10;13.05;;;2.60;99.90;;;;;;5032165;28;20025;-74
2021/03/23 07:16:20;;;;;;;54.10;14.25;;;2.70;99.90;;;;;;5031471;28;20021;-74
2021/03/23 07:18:51;;;;;;;53.65;14.30;;;2.70;99.90;;;;;;5032071;28;20044;-74
2021/03/23 07:21:25;;;;;;;62.92;13.65;;;2.50;99.90;;;;;;5014378;28;20570;-74
2021/03/23 07:24:05;;;;;;;43.45;13.65;;;2.40;99.90;;;;;;5032018;28;20481;-74
2021/03/23 07:26:36;;;;;;;36.33;13.05;;;2.60;99.90;;;;;;5029977;28;20033;-74
2021/03/23 07:29:11;;;;;;;52.95;14.13;;;2.70;99.90;;;;;;5031780;28;20029;-75
2021/03/23 07:31:49;;;;;;;63.30;16.98;;;3.00;99.90;;;;;;5025444;28;20527;-75
2021/03/23 07:34:21;;;;;;;38.50;13.07;;;3.00;99.90;;;;;;5016555;28;20053;-75
2021/03/23 07:37:10;;;;;;;38.45;13.52;;;2.90;99.90;;;;;;5028993;28;20024;-75
2021/03/23 07:39:42;;;;;;;98.63;17.08;;;3.10;99.90;;;;;;5023787;28;20156;-75
2021/03/23 07:42:28;;;;;;;48.95;14.23;;;3.10;99.90;;;;;;5021993;28;20026;-75
2021/03/23 07:45:06;;;;;;;83.40;16.33;;;3.30;99.90;;;;;;5012329;28;20038;-75
2021/03/23 07:47:45;;;;;;;36.40;15.20;;;3.50;99.90;;;;;;5023210;28;20057;-73
2021/03/23 07:50:30;;;;;;;49.47;16.27;;;3.60;99.90;;;;;;5025402;28;20470;-72
2021/03/23 07:53:08;;;;;;;85.72;21.17;;;3.50;99.90;;;;;;5030711;28;20022;-71
2021/03/23 07:55:34;;;;;;;68.35;20.33;;;3.20;99.90;;;;;;5030465;28;20049;-73
2021/03/23 07:58:24;;;;;;;44.50;17.30;;;3.10;99.90;;;;;;5030256;28;20473;-74
2021/03/23 08:01:11;;;;;;;48.72;18.35;;;3.00;99.90;;;;;;5026707;28;20103;-73
2021/03/23 08:03:52;;;;;;;45.33;17.58;;;3.00;99.90;;;;;;5008384;28;20022;-73
2021/03/23 08:06:25;;;;;;;41.95;16.92;;;3.20;99.90;;;;;;5027379;28;20167;-73
2021/03/23 08:09:12;;;;;;;50.25;18.10;;;3.00;99.90;;;;;;5025871;28;20044;-73
2021/03/23 08:12:02;;;;;;;47.15;16.65;;;3.10;99.90;;;;;;5030008;28;20029;-74
2021/03/23 08:14:50;;;;;;;30.80;16.05;;;3.30;99.90;;;;;;5000559;28;20029;-73
2021/03/23 08:17:16;;;;;;;47.95;17.42;;;3.30;99.90;;;;;;5026464;28;20072;-73
2021/03/23 08:20:01;;;;;;;34.58;14.82;;;3.20;99.90;;;;;;4996355;28;20029;-73
2021/03/23 08:22:45;;;;;;;45.17;16.80;;;3.30;99.90;;;;;;5029065;28;20029;-73
2021/03/23 08:25:25;;;;;;;41.17;16.05;;;3.50;99.90;;;;;;5032868;28;20029;-73
2021/03/23 08:28:10;;;;;;;31.50;13.52;;;3.80;99.90;;;;;;5030207;28;20033;-73
2021/03/23 08:30:45;;;;;;;29.85;15.30;;;3.70;99.90;;;;;;5033449;28;20047;-73
2021/03/23 08:33:40;;;;;;;34.15;15.50;;;3.50;99.90;;;;;;5019734;28;20037;-74
2021/03/23 08:36:31;;;;;;;40.45;15.63;;;3.60;99.90;;;;;;5033757;28;20037;-74
2021/03/23 08:39:15;;;;;;;36.25;15.25;;;3.40;99.90;;;;;;5004368;28;20032;-75
2021/03/23 08:42:02;;;;;;;34.65;14.82;;;3.60;99.90;;;;;;5014761;28;20129;-75
2021/03/23 08:44:32;;;;;;;40.00;15.32;;;3.70;99.90;;;;;;5033153;28;20116;-73
2021/03/23 08:47:18;;;;;;;46.63;13.60;;;4.00;99.90;;;;;;5029537;28;20119;-74
2021/03/23 08:49:45;;;;;;;77.35;17.30;;;4.10;99.90;;;;;;5033299;28;20033;-74
2021/03/23 08:52:38;;;;;;;33.67;13.65;;;4.10;98.80;;;;;;5033357;28;20427;-74
2021/03/23 08:55:32;;;;;;;31.98;14.23;;;4.10;98.80;;;;;;5011436;28;20063;-74
2021/03/23 08:58:15;;;;;;;33.58;13.07;;;4.30;98.20;;;;;;5015739;28;20481;-74
2021/03/23 09:00:57;;;;;;;61.40;14.95;;;4.20;97.60;;;;;;5013330;28;20029;-74
2021/03/23 09:03:39;;;;;;;60.47;13.13;;;4.50;97.00;;;;;;5022875;28;20495;-74
2021/03/23 09:06:07;;;;;;;59.47;16.17;;;4.80;95.40;;;;;;5023435;28;20048;-74
2021/03/23 09:08:40;;;;;;;34.15;12.90;;;5.00;93.10;;;;;;5032916;28;20032;-74
2021/03/23 09:11:16;;;;;;;30.65;12.15;;;4.90;93.30;;;;;;5024124;28;20030;-74
2021/03/23 09:13:43;;;;;;;75.95;17.23;;;5.20;93.50;;;;;;5032853;28;20033;-75
2021/03/23 09:16:12;;;;;;;56.35;14.70;;;5.30;93.00;;;;;;5027188;28;20018;-73
2021/03/23 09:19:03;;;;;;;37.47;14.05;;;5.30;92.20;;;;;;5032937;28;20025;-73
2021/03/23 09:21:56;;;;;;;69.22;13.93;;;5.80;91.60;;;;;;5032845;28;20040;-73
2021/03/23 09:24:37;;;;;;;33.28;11.15;;;6.00;87.00;;;;;;5032722;28;20032;-74
2021/03/23 09:27:13;;;;;;;73.80;15.93;;;6.40;87.00;;;;;;5028374;28;20079;-74
2021/03/23 09:29:43;;;;;;;20.55;9.27;;;7.20;84.20;;;;;;5028244;28;20030;-74
2021/03/23 09:32:17;;;;;;;29.67;11.38;;;7.50;79.50;;;;;;5028075;28;20061;-74
2021/03/23 09:35:09;;;;;;;19.38;8.57;;;7.50;78.40;;;;;;5037052;28;20428;-74
2021/03/23 09:37:41;;;;;;;;;;;7.50;76.20;;;;;;5033106;28;20017;-74
2021/03/23 09:40:19;;;;;;;43.78;12.02;;;7.80;76.50;;;;;;5027661;28;20380;-73
2021/03/23 09:43:28;;;;;;;45.25;12.45;;;8.30;75.40;;;;;;5030626;28;20031;-73
2021/03/23 09:45:58;;;;;;;26.13;10.10;;;8.50;75.10;;;;;;5031248;28;20041;-73
2021/03/23 09:48:57;;;;;;;27.77;11.10;;;8.70;72.30;;;;;;5032645;28;20021;-73
2021/03/23 09:51:33;;;;;;;30.42;10.40;;;8.40;73.70;;;;;;5032471;28;20032;-73
2021/03/23 09:53:59;;;;;;;23.42;10.32;;;8.10;73.80;;;;;;5031233;28;20025;-73
2021/03/23 09:56:34;;;;;;;32.60;11.45;;;7.40;74.00;;;;;;5014191;28;20022;-73
2021/03/23 09:59:11;;;;;;;76.32;14.32;;;6.90;75.90;;;;;;5031970;28;20397;-73
2021/03/23 10:02:04;;;;;;;41.30;10.43;;;6.70;78.70;;;;;;5018176;28;20021;-73
2021/03/23 10:04:41;;;;;;;64.68;12.77;;;6.80;77.70;;;;;;5014014;28;20125;-74
2021/03/23 10:07:11;;;;;;;44.55;12.25;;;7.00;77.40;;;;;;5028556;28;20025;-73
2021/03/23 10:09:37;;;;;;;48.17;12.35;;;7.00;76.60;;;;;;5014282;28;20025;-73
2021/03/23 10:12:05;;;;;;;72.20;12.23;;;6.90;76.10;;;;;;5032562;28;20032;-73
2021/03/23 10:14:40;;;;;;;56.83;15.07;;;6.80;77.00;;;;;;5012546;28;20049;-74
2021/03/23 10:17:26;;;;;;;38.53;11.85;;;6.80;76.50;;;;;;5028946;28;20017;-73
2021/03/23 10:20:00;;;;;;;63.53;11.80;;;6.90;75.90;;;;;;5025464;28;20041;-74
2021/03/23 10:22:32;;;;;;;44.33;13.20;;;7.10;76.00;;;;;;4999308;28;20030;-73
2021/03/23 10:24:59;;;;;;;50.47;11.38;;;7.20;75.40;;;;;;5025806;28;20022;-74
2021/03/23 10:27:34;;;;;;;31.35;11.88;;;7.10;74.10;;;;;;5031084;28;20366;-74
2021/03/23 10:30:06;;;;;;;64.53;14.05;;;7.10;74.20;;;;;;5031857;28;20034;-74
2021/03/23 10:32:35;;;;;;;27.63;9.55;;;7.20;74.60;;;;;;5017190;28;20056;-74
2021/03/23 10:35:09;;;;;;;25.85;7.82;;;7.40;72.50;;;;;;5026693;28;20029;-74
2021/03/23 10:37:34;;;;;;;24.75;8.57;;;7.40;71.40;;;;;;5011525;28;20482;-74
2021/03/23 10:40:00;;;;;;;15.90;7.72;;;7.90;72.00;;;;;;5008645;28;20117;-74
2021/03/23 10:42:30;;;;;;;17.70;8.43;;;8.50;68.50;;;;;;4993183;28;20033;-74
2021/03/23 10:45:24;;;;;;;21.95;8.57;;;8.20;65.20;;;;;;5021382;28;20493;-74
2021/03/23 10:48:02;;;;;;;28.08;8.20;;;8.20;66.30;;;;;;5030662;28;20026;-74
2021/03/23 10:50:30;;;;;;;26.05;8.65;;;7.90;67.10;;;;;;5019365;28;20084;-74
2021/03/23 10:53:12;;;;;;;28.33;8.45;;;7.60;68.90;;;;;;5024834;28;20013;-77
2021/03/23 10:55:43;;;;;;;;;;;7.40;69.60;;;;;;5028708;28;20425;-74
2021/03/23 10:58:24;;;;;;;32.70;9.40;;;7.30;69.50;;;;;;5031347;28;20254;-74
2021/03/23 11:01:09;;;;;;;22.08;7.75;;;7.30;70.00;;;;;;5030800;28;20032;-74
2021/03/23 11:03:36;;;;;;;25.67;8.73;;;7.30;69.30;;;;;;5022029;28;20064;-74
2021/03/23 11:06:03;;;;;;;33.08;8.77;;;7.30;70.30;;;;;;5025018;28;20026;-74
2021/03/23 11:08:30;;;;;;;24.48;9.88;;;7.30;70.40;;;;;;5022982;28;20372;-74
2021/03/23 11:10:58;;;;;;;23.35;9.50;;;7.20;71.00;;;;;;5030584;28;20037;-74
2021/03/23 11:13:25;;;;;;;28.42;8.57;;;7.30;71.50;;;;;;5022821;28;20374;-75
2021/03/23 11:15:53;;;;;;;16.83;7.72;;;7.30;71.30;;;;;;5015012;28;20106;-75
2021/03/23 11:18:29;;;;;;;22.15;7.72;;;7.40;70.40;;;;;;5031081;28;20024;-75
2021/03/23 11:20:57;;;;;;;25.63;8.90;;;7.40;70.20;;;;;;5031566;28;20037;-74
2021/03/23 11:23:40;;;;;;;23.52;8.02;;;7.30;71.50;;;;;;5016619;28;20079;-75
2021/03/23 11:26:08;;;;;;;33.13;8.50;;;7.00;71.00;;;;;;5031137;28;20029;-75
2021/03/23 11:28:34;;;;;;;14.60;6.30;;;6.90;71.90;;;;;;5030445;28;20025;-73
2021/03/23 11:31:02;;;;;;;24.63;8.43;;;7.00;73.70;;;;;;5030614;28;20496;-73
2021/03/23 11:33:30;;;;;;;19.55;7.32;;;7.10;72.30;;;;;;5025187;28;20021;-74
2021/03/23 11:35:56;;;;;;;28.73;7.75;;;7.50;69.60;;;;;;5030672;28;20021;-74
2021/03/23 11:38:23;;;;;;;11.18;6.97;;;8.20;70.10;;;;;;5011447;28;20422;-73
2021/03/23 11:40:52;;;;;;;14.15;6.07;;;9.10;67.60;;;;;;5009830;28;20060;-73
2021/03/23 11:43:50;;;;;;;11.85;5.72;;;9.60;62.80;;;;;;5031064;28;20017;-73
2021/03/23 11:46:33;;;;;;;18.70;7.38;;;10.10;60.40;;;;;;5003946;28;20053;-76
2021/03/23 11:49:09;;;;;;;13.35;6.82;;;10.60;60.20;;;;;;5013000;28;20428;-72
2021/03/23 11:51:44;;;;;;;14.50;7.13;;;11.00;59.30;;;;;;5029565;28;20068;-73
2021/03/23 11:54:11;;;;;;;16.88;6.43;;;11.10;57.60;;;;;;5018924;28;20057;-72
2021/03/23 11:56:37;;;;;;;13.07;6.60;;;11.30;55.50;;;;;;5005599;28;20037;-72
2021/03/23 11:59:03;;;;;;;15.70;6.78;;;11.40;55.20;;;;;;5033187;28;20021;-73
2021/03/23 12:01:29;;;;;;;15.07;7.10;;;11.90;56.20;;;;;;5034471;28;20041;-73
2021/03/23 12:03:55;;;;;;;38.13;8.27;;;12.00;55.10;;;;;;5016671;28;20040;-73
2021/03/23 12:06:40;;;;;;;20.10;8.68;;;11.60;55.70;;;;;;5034838;28;20038;-73
2021/03/23 12:09:14;;;;;;;12.15;5.20;;;10.80;57.50;;;;;;5028558;28;20104;-72
2021/03/23 12:11:51;;;;;;;12.82;5.38;;;10.30;56.70;;;;;;5034334;28;20040;-73
2021/03/23 12:14:25;;;;;;;24.75;6.45;;;10.10;56.80;;;;;;5034110;28;20025;-73
2021/03/23 12:17:10;;;;;;;21.70;5.80;;;9.90;55.90;;;;;;5027673;28;20022;-73
2021/03/23 12:19:51;;;;;;;34.50;7.82;;;9.90;57.40;;;;;;5025552;28;20469;-72
2021/03/23 12:22:18;;;;;;;21.20;6.10;;;9.70;57.80;;;;;;5011937;28;20056;-73
2021/03/23 12:24:45;;;;;;;12.32;6.07;;;9.30;58.50;;;;;;5033970;28;20033;-73
2021/03/23 12:27:12;;;;;;;16.42;7.28;;;9.10;58.50;;;;;;5019377;28;20052;-73
2021/03/23 12:29:39;;;;;;;17.88;5.35;;;9.00;59.00;;;;;;5020286;28;20041;-73
2021/03/23 12:32:12;;;;;;;16.75;6.47;;;9.00;59.10;;;;;;5034118;28;20091;-73
2021/03/23 12:34:38;;;;;;;13.98;5.05;;;9.20;59.60;;;;;;5003058;28;20036;-73
2021/03/23 12:37:05;;;;;;;23.13;6.15;;;9.20;59.80;;;;;;5032665;28;20097;-73
2021/03/23 12:39:31;;;;;;;15.20;6.28;;;8.80;60.90;;;;;;5029284;28;20040;-74
2021/03/23 12:41:57;;;;;;;14.57;5.82;;;8.60;59.60;;;;;;5034131;28;20485;-73
2021/03/23 12:44:23;;;;;;;14.93;5.82;;;8.50;61.40;;;;;;5034483;28;20060;-73
2021/03/23 12:46:49;;;;;;;9.07;5.40;;;8.30;63.60;;;;;;5030723;28;20048;-74
2021/03/23 12:49:15;;;;;;;20.35;6.07;;;8.40;62.40;;;;;;5016452;28;20032;-73
2021/03/23 12:51:47;;;;;;;19.85;5.85;;;8.10;60.90;;;;;;5000908;28;20026;-73
2021/03/23 12:54:17;;;;;;;16.88;7.38;;;8.30;62.70;;;;;;5016217;28;20033;-74
2021/03/23 12:56:44;;;;;;;18.13;6.40;;;8.40;61.30;;;;;;5002264;28;20608;-74
2021/03/23 12:59:21;;;;;;;16.02;6.22;;;8.60;62.80;;;;;;5024758;28;20069;-74
2021/03/23 13:01:47;;;;;;;26.73;7.32;;;8.70;61.70;;;;;;5011681;28;20029;-73
2021/03/23 13:04:13;;;;;;;22.20;7.35;;;8.80;61.20;;;;;;5014905;28;20038;-74
2021/03/23 13:06:39;;;;;;;43.60;9.55;;;8.70;60.70;;;;;;5033520;28;20037;-74